This is the latest recevied weather packets stored in our database for station/object AE6DC-5. If no packets are shown the sender has not sent any weather packets the latest 10 day(s).
| Time | Temp. | Humidity | Pressure | Rain* | Wind** | Luminosity | Snow |
|---|---|---|---|---|---|---|---|
| 1777645216 | 11.67° C | 93% | 1015.4 hPa | 0 mm | - | 24 W/m² | - |
| 1777643800 | 11.67° C | 93% | 1015.1 hPa | 0 mm | - | 15 W/m² | - |
| 1777642001 | 12.22° C | 93% | 1014.8 hPa | 0 mm | - | 3 W/m² | - |
| 1777639461 | 12.22° C | 92% | 1014.7 hPa | 0 mm | - | 0 W/m² | - |
| 1777629038 | 12.22° C | 92% | 1014.8 hPa | 0 mm | - | 0 W/m² | - |
| 1777628658 | 12.22° C | 92% | 1014.8 hPa | 0 mm | - | 0 W/m² | - |
| 1777628298 | 12.22° C | 92% | 1014.8 hPa | 0 mm | - | 0 W/m² | - |
| 1777627941 | 12.22° C | 91% | 1014.9 hPa | 0 mm | - | 0 W/m² | - |
| 1777625062 | 12.22° C | 91% | 1015.2 hPa | 0 mm | - | 0 W/m² | - |
| 1777624339 | 12.22° C | 91% | 1015.3 hPa | 0 mm | - | 0 W/m² | - |
| 1777623979 | 12.22° C | 91% | 1015.4 hPa | 0 mm | - | 0 W/m² | - |
| 1777622180 | 12.22° C | 91% | 1015.5 hPa | 0 mm | - | 0 W/m² | - |
| 1777621463 | 12.22° C | 91% | 1015.6 hPa | 0 mm | - | 0 W/m² | - |
| 1777620740 | 12.22° C | 91% | 1015.6 hPa | 0 mm | - | 0 W/m² | - |
| 1777617138 | 12.22° C | 92% | 1015.5 hPa | 0 mm | - | 0 W/m² | - |
| 1777616079 | 12.22° C | 91% | 1015.5 hPa | 0 mm | - | 0 W/m² | - |
| 1777615699 | 12.22° C | 91% | 1015.6 hPa | 0 mm | - | 0 W/m² | - |
| 1777613179 | 12.22° C | 91% | 1015.5 hPa | 0 mm | - | 0 W/m² | - |
| 1777609221 | 12.22° C | 91% | 1015.3 hPa | 0 mm | - | 0 W/m² | - |
| 1777608518 | 12.22° C | 91% | 1015.2 hPa | 0 mm | - | 0 W/m² | - |
| 1777606338 | 12.22° C | 90% | 1015.1 hPa | 0 mm | - | 0 W/m² | - |
| 1777604899 | 12.22° C | 90% | 1015.1 hPa | 0 mm | - | 1 W/m² | - |
| 1777603819 | 12.22° C | 90% | 1015 hPa | 0 mm | - | 3 W/m² | - |
| 1777603116 | 12.22° C | 89% | 1015.1 hPa | 0 mm | - | 11 W/m² | - |
| 1777602380 | 12.78° C | 89% | 1015 hPa | 0 mm | - | 13 W/m² | - |
* Rain latest hour (hover to see other rain measurements)
** Current wind speed in m/s (hover to see current wind gust speed)